Time;durP1;ratioP1;P1;durP2;ratioP2;P2;SDS_P1;SDS_P2;PMS_P1;PMS_P2;Temp;Humidity;BMP_temperature;BMP_pressure;BME280_temperature;BME280_humidity;BME280_pressure;Samples;Min_cycle;Max_cycle;Signal;HPM_P1;HPM_P2
2023/01/15 00:01:54;;;;;;;18.30;9.38;;;8.60;99.90;;;;;;5019370;28;20213;-81
2023/01/15 00:04:21;;;;;;;13.52;8.25;;;8.60;99.90;;;;;;5013755;28;20072;-81
2023/01/15 00:06:47;;;;;;;17.63;10.07;;;8.50;99.90;;;;;;5018736;28;20051;-81
2023/01/15 00:09:15;;;;;;;13.35;7.97;;;8.50;99.90;;;;;;5040313;28;20045;-81
2023/01/15 00:11:42;;;;;;;13.35;8.50;;;8.40;99.90;;;;;;5034823;28;20383;-80
2023/01/15 00:14:08;;;;;;;13.40;9.13;;;8.40;99.90;;;;;;5039232;28;20067;-81
2023/01/15 00:16:35;;;;;;;16.75;9.30;;;8.40;99.90;;;;;;5018746;28;20161;-80
2023/01/15 00:19:03;;;;;;;16.13;8.40;;;8.30;99.90;;;;;;5039317;28;20525;-81
2023/01/15 00:21:30;;;;;;;9.68;7.10;;;8.30;99.90;;;;;;5022869;28;20045;-80
2023/01/15 00:29:27;;;;;;;8.70;6.35;;;8.20;99.90;;;;;;5024892;28;19924;-80
2023/01/15 00:32:00;;;;;;;8.30;4.53;;;8.20;99.90;;;;;;5034150;28;20043;-79
2023/01/15 00:34:29;;;;;;;6.07;3.63;;;8.10;99.90;;;;;;5048652;28;20029;-80
2023/01/15 00:36:57;;;;;;;5.22;3.88;;;8.10;99.90;;;;;;5051795;28;20297;-80
2023/01/15 00:39:25;;;;;;;3.97;2.72;;;8.00;99.90;;;;;;5036165;28;20487;-81
2023/01/15 00:41:53;;;;;;;4.78;2.20;;;8.00;99.90;;;;;;5024078;28;20490;-81
2023/01/15 00:44:20;;;;;;;4.43;2.33;;;7.90;99.90;;;;;;5028198;28;20073;-80
2023/01/15 00:46:47;;;;;;;3.30;2.00;;;7.70;99.90;;;;;;5030508;28;20261;-81
2023/01/15 00:49:14;;;;;;;5.15;2.80;;;7.50;99.90;;;;;;5032885;28;20052;-80
2023/01/15 00:51:41;;;;;;;4.55;2.53;;;7.20;99.90;;;;;;5028816;28;20045;-81
2023/01/15 00:54:07;;;;;;;6.72;2.58;;;7.00;99.90;;;;;;5037579;28;20212;-80
2023/01/15 00:56:35;;;;;;;7.63;3.15;;;6.80;99.90;;;;;;5012656;28;20041;-80
2023/01/15 00:59:03;;;;;;;6.25;2.20;;;6.40;99.90;;;;;;5031484;28;20049;-80
2023/01/15 01:01:31;;;;;;;7.88;2.92;;;6.20;99.90;;;;;;5032625;28;20045;-81
2023/01/15 01:03:58;;;;;;;3.97;2.88;;;6.00;99.90;;;;;;5029750;28;20049;-80
2023/01/15 01:06:25;;;;;;;7.63;3.25;;;6.00;99.90;;;;;;5028674;28;20046;-80
2023/01/15 01:08:52;;;;;;;7.22;3.40;;;5.90;99.90;;;;;;5026790;28;20104;-81
2023/01/15 01:11:25;;;;;;;4.63;2.00;;;5.90;99.90;;;;;;5043579;28;20108;-80
2023/01/15 01:13:54;;;;;;;2.88;1.42;;;5.80;99.90;;;;;;5027675;28;20038;-80
2023/01/15 01:16:23;;;;;;;3.22;1.42;;;5.60;99.90;;;;;;5015714;28;20132;-80
2023/01/15 01:18:50;;;;;;;2.63;1.40;;;5.50;99.90;;;;;;5019083;28;20064;-80
2023/01/15 01:21:17;;;;;;;1.98;1.45;;;5.50;99.90;;;;;;5028462;28;20069;-81
2023/01/15 01:23:44;;;;;;;1.55;1.25;;;5.40;99.90;;;;;;5034738;28;20065;-80
2023/01/15 01:26:12;;;;;;;4.63;1.98;;;5.20;99.90;;;;;;5035911;28;20080;-80
2023/01/15 01:28:40;;;;;;;3.17;1.70;;;5.20;99.90;;;;;;5031755;28;20516;-81
2023/01/15 01:31:07;;;;;;;3.35;1.15;;;5.20;99.90;;;;;;5062130;28;20355;-81
2023/01/15 01:33:35;;;;;;;3.47;1.10;;;5.00;99.90;;;;;;5063557;28;20091;-81
2023/01/15 01:36:02;;;;;;;1.13;1.00;;;4.90;99.90;;;;;;5041157;28;20041;-81
2023/01/15 01:38:29;;;;;;;2.20;1.00;;;4.80;99.90;;;;;;5030305;28;20041;-81
2023/01/15 01:40:56;;;;;;;4.22;1.20;;;4.80;99.90;;;;;;5043621;28;20045;-80
2023/01/15 01:43:26;;;;;;;1.77;1.48;;;4.70;99.90;;;;;;5065098;28;20053;-80
2023/01/15 01:45:53;;;;;;;2.10;1.20;;;4.60;99.90;;;;;;5051843;28;20064;-79
2023/01/15 01:48:27;;;;;;;2.90;1.13;;;4.70;99.90;;;;;;5067887;28;20310;-78
2023/01/15 01:50:56;;;;;;;1.58;1.40;;;4.60;99.90;;;;;;5049884;28;20044;-79
2023/01/15 01:53:29;;;;;;;1.20;1.10;;;4.70;99.90;;;;;;5054522;28;20055;-78
2023/01/15 01:55:58;;;;;;;1.80;1.50;;;4.70;99.90;;;;;;5045280;28;20037;-79
2023/01/15 01:58:29;;;;;;;1.10;1.00;;;4.60;99.90;;;;;;5047774;28;20156;-79
2023/01/15 02:00:56;;;;;;;2.30;1.15;;;4.50;99.90;;;;;;5027969;28;20116;-78
2023/01/15 02:03:31;;;;;;;3.58;1.13;;;4.50;99.90;;;;;;5044337;28;20049;-79
2023/01/15 02:06:01;;;;;;;3.67;1.05;;;4.50;99.90;;;;;;5024304;28;20532;-79
2023/01/15 02:08:28;;;;;;;2.35;1.63;;;4.40;99.90;;;;;;5032001;28;20052;-79
2023/01/15 02:10:55;;;;;;;2.15;1.23;;;4.40;99.90;;;;;;5045038;28;20697;-79
2023/01/15 02:13:39;;;;;;;1.35;1.25;;;4.30;99.90;;;;;;5024454;28;20491;-78
2023/01/15 02:16:13;;;;;;;1.20;1.10;;;4.30;99.90;;;;;;5040125;28;20140;-79
2023/01/15 02:18:44;;;;;;;4.40;1.42;;;4.30;99.90;;;;;;5044429;28;20107;-78
2023/01/15 02:21:38;;;;;;;1.20;1.10;;;4.30;99.90;;;;;;5028560;28;20260;-79
2023/01/15 02:24:31;;;;;;;2.85;1.25;;;4.20;99.90;;;;;;5031862;28;20411;-78
2023/01/15 02:27:06;;;;;;;2.00;1.60;;;4.10;99.90;;;;;;5042562;28;20037;-78
2023/01/15 02:29:49;;;;;;;2.45;1.70;;;4.10;99.90;;;;;;5042370;28;20053;-78
2023/01/15 02:32:36;;;;;;;2.58;1.60;;;4.10;99.90;;;;;;5043031;28;20049;-77
2023/01/15 02:35:13;;;;;;;1.95;1.63;;;4.10;99.90;;;;;;5050015;28;20124;-77
2023/01/15 02:37:47;;;;;;;1.50;1.40;;;4.10;99.90;;;;;;5042167;28;20052;-78
2023/01/15 02:40:19;;;;;;;6.57;1.50;;;4.10;99.90;;;;;;5044751;28;20110;-78
2023/01/15 02:42:48;;;;;;;5.18;1.80;;;4.20;99.90;;;;;;5039881;28;20083;-77
2023/01/15 02:45:23;;;;;;;2.08;1.90;;;4.20;99.90;;;;;;5045249;28;20041;-77
2023/01/15 02:47:53;;;;;;;1.52;1.42;;;4.20;99.90;;;;;;5041009;28;20072;-77
2023/01/15 02:50:24;;;;;;;1.70;1.58;;;4.20;99.90;;;;;;5025233;28;20052;-77
2023/01/15 02:52:57;;;;;;;2.25;2.15;;;4.30;99.90;;;;;;5041360;28;20123;-78
2023/01/15 02:55:32;;;;;;;2.47;2.38;;;4.30;99.90;;;;;;5041470;28;20076;-76
2023/01/15 02:58:06;;;;;;;3.65;3.35;;;4.40;99.90;;;;;;5027297;28;20095;-77
2023/01/15 03:00:37;;;;;;;3.60;3.40;;;4.40;99.90;;;;;;5040951;28;20049;-77
2023/01/15 03:03:13;;;;;;;4.93;4.63;;;4.40;99.90;;;;;;5035071;28;20103;-77
2023/01/15 03:05:52;;;;;;;5.70;5.40;;;4.50;99.90;;;;;;5039035;28;20695;-77
2023/01/15 03:08:19;;;;;;;5.50;5.30;;;4.50;99.90;;;;;;5044966;28;20136;-78
2023/01/15 03:10:58;;;;;;;5.68;5.47;;;4.50;99.90;;;;;;5023411;28;20889;-77
2023/01/15 03:13:38;;;;;;;6.65;6.40;;;4.50;99.90;;;;;;5023564;28;20624;-76
2023/01/15 03:16:39;;;;;;;6.93;6.65;;;4.60;99.90;;;;;;5038062;28;20127;-77
2023/01/15 03:19:11;;;;;;;7.20;6.90;;;4.60;99.90;;;;;;5055797;28;20128;-77
2023/01/15 03:21:48;;;;;;;8.00;7.60;;;4.60;99.90;;;;;;5040639;28;20654;-78
2023/01/15 03:24:32;;;;;;;8.25;7.88;;;4.60;99.90;;;;;;5043497;28;20041;-77
2023/01/15 03:27:00;;;;;;;8.77;8.48;;;4.60;99.90;;;;;;5041989;28;20136;-77
2023/01/15 03:29:36;;;;;;;9.32;8.88;;;4.70;99.90;;;;;;5024185;28;20045;-76
2023/01/15 03:32:05;;;;;;;9.90;9.40;;;4.60;99.90;;;;;;5016520;28;20048;-77
2023/01/15 03:34:45;;;;;;;9.25;8.90;;;4.70;99.90;;;;;;5040506;28;20082;-76
2023/01/15 03:37:17;;;;;;;10.27;9.77;;;4.70;99.90;;;;;;5039071;28;20037;-78
2023/01/15 03:39:44;;;;;;;10.40;10.00;;;4.70;99.90;;;;;;5042791;28;20073;-77
2023/01/15 03:42:27;;;;;;;10.50;9.90;;;4.80;99.90;;;;;;5042118;28;20098;-76
2023/01/15 03:45:03;;;;;;;10.32;9.90;;;4.80;99.90;;;;;;5044599;28;20056;-77
2023/01/15 03:47:52;;;;;;;10.95;10.35;;;4.80;99.90;;;;;;5040097;28;20068;-77
2023/01/15 03:50:53;;;;;;;11.18;10.68;;;4.80;99.90;;;;;;5042417;28;20516;-76
2023/01/15 03:53:25;;;;;;;10.70;10.30;;;4.80;99.90;;;;;;5043343;28;20059;-77
2023/01/15 03:56:35;;;;;;;11.05;10.45;;;4.80;99.90;;;;;;5041519;28;20061;-76
2023/01/15 03:59:10;;;;;;;11.07;10.48;;;4.90;99.90;;;;;;4970655;28;20091;-75
2023/01/15 04:02:02;;;;;;;11.10;10.55;;;4.90;99.90;;;;;;4966437;28;20173;-76
2023/01/15 04:04:30;;;;;;;11.90;11.30;;;4.90;99.90;;;;;;5014365;28;20049;-76
2023/01/15 04:07:00;;;;;;;11.95;11.10;;;4.90;99.90;;;;;;5023524;28;20033;-76
2023/01/15 04:09:27;;;;;;;12.05;11.38;;;5.00;99.90;;;;;;5041083;28;20064;-77
2023/01/15 04:12:00;;;;;;;11.25;10.75;;;5.00;99.90;;;;;;5040770;28;20086;-76
2023/01/15 04:14:30;;;;;;;11.25;10.75;;;5.00;99.90;;;;;;5024787;28;20048;-78
2023/01/15 04:16:57;;;;;;;11.15;10.45;;;5.00;99.90;;;;;;5042219;28;20132;-77
2023/01/15 04:19:24;;;;;;;11.13;10.48;;;4.90;99.90;;;;;;5049617;28;20123;-78
2023/01/15 04:21:58;;;;;;;10.93;10.20;;;4.90;99.90;;;;;;5040332;28;20075;-77
2023/01/15 04:24:25;;;;;;;11.40;10.73;;;4.90;99.90;;;;;;5045396;28;20448;-76
2023/01/15 04:26:52;;;;;;;10.18;9.55;;;4.90;99.90;;;;;;5042706;28;20107;-77
2023/01/15 04:29:19;;;;;;;10.60;10.10;;;5.00;99.90;;;;;;5044834;28;20068;-77
2023/01/15 04:31:46;;;;;;;11.20;10.40;;;4.90;99.90;;;;;;5045668;28;20043;-76
2023/01/15 04:34:13;;;;;;;10.88;10.23;;;4.90;99.90;;;;;;5023637;28;20055;-77
2023/01/15 04:36:39;;;;;;;12.30;11.25;;;4.90;99.90;;;;;;5024310;28;20562;-77
2023/01/15 04:39:06;;;;;;;11.95;11.20;;;5.00;99.90;;;;;;5045837;28;20067;-78
2023/01/15 04:44:18;;;;;;;11.98;11.15;;;5.00;99.90;;;;;;5036110;28;20132;-78
2023/01/15 04:46:46;;;;;;;12.68;11.98;;;5.00;99.90;;;;;;5028545;28;20144;-77
2023/01/15 04:49:15;;;;;;;12.38;11.38;;;5.00;99.90;;;;;;5026962;28;20051;-76
2023/01/15 04:51:43;;;;;;;12.73;11.73;;;5.00;99.90;;;;;;5038679;28;20084;-76
2023/01/15 04:54:13;;;;;;;12.13;11.27;;;5.00;99.90;;;;;;5024494;28;20048;-76
2023/01/15 04:56:44;;;;;;;12.65;11.82;;;5.00;99.90;;;;;;5038105;28;20033;-77
2023/01/15 04:59:12;;;;;;;12.55;11.55;;;5.00;99.90;;;;;;5042550;28;20048;-77
2023/01/15 05:01:39;;;;;;;12.75;11.85;;;5.00;99.90;;;;;;5017236;28;20051;-77
2023/01/15 05:04:12;;;;;;;12.68;11.85;;;5.00;99.90;;;;;;5038370;28;20194;-77
2023/01/15 05:06:38;;;;;;;11.95;11.45;;;5.10;99.90;;;;;;5042882;28;20075;-77
2023/01/15 05:09:06;;;;;;;12.57;11.77;;;5.00;99.90;;;;;;5044319;28;20040;-76
2023/01/15 05:11:37;;;;;;;13.93;12.90;;;5.10;99.90;;;;;;5037357;28;20049;-77
2023/01/15 05:14:05;;;;;;;14.45;13.52;;;5.10;99.90;;;;;;5038318;28;20468;-77
2023/01/15 05:16:33;;;;;;;14.48;13.50;;;5.10;99.90;;;;;;5023017;28;20049;-76
2023/01/15 05:19:02;;;;;;;13.55;12.55;;;5.10;99.90;;;;;;5038591;28;20521;-76
2023/01/15 05:21:32;;;;;;;13.48;12.57;;;5.10;99.90;;;;;;5025074;28;20045;-74
2023/01/15 05:24:01;;;;;;;13.43;12.52;;;5.10;99.90;;;;;;5035639;28;20136;-76
2023/01/15 05:26:30;;;;;;;13.80;12.90;;;5.10;99.90;;;;;;5036060;28;20057;-75
2023/01/15 05:28:58;;;;;;;13.88;13.07;;;5.10;99.90;;;;;;5039018;28;20055;-75
2023/01/15 05:31:27;;;;;;;14.80;13.98;;;5.10;99.90;;;;;;5022019;28;20483;-75
2023/01/15 05:33:54;;;;;;;14.57;13.75;;;5.20;99.90;;;;;;5036164;28;20560;-76
2023/01/15 05:36:24;;;;;;;15.48;14.48;;;5.20;99.90;;;;;;5038057;28;20151;-76
2023/01/15 05:38:53;;;;;;;15.57;14.30;;;5.20;99.90;;;;;;5037771;28;20055;-76
2023/01/15 05:44:09;;;;;;;14.63;13.75;;;5.30;99.90;;;;;;5043250;28;20565;-76
2023/01/15 05:46:37;;;;;;;14.77;13.85;;;5.20;99.90;;;;;;5036662;28;20135;-77
2023/01/15 05:49:07;;;;;;;15.27;13.70;;;5.20;99.90;;;;;;5039954;28;20103;-76
2023/01/15 05:51:35;;;;;;;16.08;14.68;;;5.20;99.90;;;;;;5019026;28;20051;-75
2023/01/15 05:54:03;;;;;;;14.90;13.77;;;5.20;99.90;;;;;;5041800;28;20033;-76
2023/01/15 05:56:29;;;;;;;14.40;13.60;;;5.20;99.90;;;;;;5043987;28;20724;-76
2023/01/15 05:58:56;;;;;;;15.18;13.98;;;5.20;99.90;;;;;;5025479;28;20037;-76
2023/01/15 06:01:23;;;;;;;14.55;13.73;;;5.20;99.90;;;;;;5038689;28;20049;-75
2023/01/15 06:03:52;;;;;;;14.90;13.82;;;5.20;99.90;;;;;;5048864;28;20074;-76
2023/01/15 06:06:18;;;;;;;14.88;13.82;;;5.20;99.90;;;;;;5045194;28;20048;-75
2023/01/15 06:08:45;;;;;;;14.60;13.80;;;5.20;99.90;;;;;;5044253;28;20079;-76
2023/01/15 06:11:12;;;;;;;15.23;14.10;;;5.20;99.90;;;;;;5041885;28;20036;-76
2023/01/15 06:13:39;;;;;;;14.80;13.85;;;5.20;99.90;;;;;;5036303;28;20053;-76
2023/01/15 06:16:09;;;;;;;14.38;13.48;;;5.20;99.90;;;;;;5038215;28;20083;-76
2023/01/15 06:18:40;;;;;;;15.57;14.27;;;5.20;99.90;;;;;;5038585;28;20045;-76
2023/01/15 06:21:09;;;;;;;14.15;13.25;;;5.20;99.90;;;;;;5035629;28;20068;-76
2023/01/15 06:23:36;;;;;;;14.18;13.48;;;5.10;99.90;;;;;;5034021;28;20041;-77
2023/01/15 06:26:11;;;;;;;14.60;13.80;;;5.20;99.90;;;;;;5021446;28;21860;-76
2023/01/15 06:28:38;;;;;;;16.75;15.57;;;5.20;99.90;;;;;;5044447;28;20060;-76
2023/01/15 06:31:06;;;;;;;15.48;14.35;;;5.10;99.90;;;;;;5040236;28;20497;-76
2023/01/15 06:33:33;;;;;;;14.95;14.15;;;5.10;99.90;;;;;;5038250;28;20067;-77
2023/01/15 06:36:06;;;;;;;14.45;13.30;;;5.10;99.90;;;;;;5026372;28;20040;-76
2023/01/15 06:38:32;;;;;;;14.65;13.63;;;5.10;99.90;;;;;;5040992;28;20052;-76
2023/01/15 06:47:19;;;;;;;14.40;13.30;;;5.00;99.90;;;;;;5035239;28;20099;-77
2023/01/15 06:49:30;;;;;;;15.98;14.85;;;5.00;99.90;;;;;;5038390;28;20143;-77
2023/01/15 06:51:57;;;;;;;17.85;16.50;;;5.00;99.90;;;;;;5020850;28;20060;-76
2023/01/15 06:54:24;;;;;;;14.77;13.88;;;5.00;99.90;;;;;;5038429;28;20041;-77
2023/01/15 06:56:51;;;;;;;15.48;14.68;;;5.00;99.90;;;;;;5038043;28;20128;-77
2023/01/15 06:59:18;;;;;;;15.73;14.43;;;5.00;99.90;;;;;;5041134;28;20068;-77
2023/01/15 07:01:45;;;;;;;14.50;13.60;;;5.00;99.90;;;;;;5035040;28;20675;-77
2023/01/15 07:04:13;;;;;;;15.05;14.05;;;5.10;99.90;;;;;;5039150;28;20057;-77
2023/01/15 07:06:40;;;;;;;15.88;14.77;;;5.00;99.90;;;;;;5061631;22;20046;-70
2023/01/15 07:09:07;;;;;;;15.30;14.50;;;5.10;99.90;;;;;;5083774;28;20143;-69
2023/01/15 07:11:34;;;;;;;15.98;14.90;;;5.00;99.90;;;;;;5071640;28;20039;-70
2023/01/15 07:14:06;;;;;;;16.65;15.55;;;5.00;99.90;;;;;;5055924;28;20044;-69
2023/01/15 07:16:36;;;;;;;16.77;15.63;;;5.00;99.90;;;;;;5053960;28;20044;-69
2023/01/15 07:19:03;;;;;;;15.98;14.55;;;5.00;99.90;;;;;;5077763;28;20091;-70
2023/01/15 07:21:30;;;;;;;15.90;14.20;;;5.00;99.90;;;;;;5072545;28;20044;-68
2023/01/15 07:24:00;;;;;;;13.80;12.70;;;5.00;99.90;;;;;;5056909;28;20105;-70
2023/01/15 07:26:27;;;;;;;15.02;13.68;;;4.90;99.90;;;;;;5074930;28;20048;-69
2023/01/15 07:28:54;;;;;;;16.88;15.68;;;4.90;99.90;;;;;;5047331;28;20148;-70
2023/01/15 07:31:21;;;;;;;15.07;14.18;;;5.00;99.90;;;;;;5046143;28;20052;-69
2023/01/15 07:33:47;;;;;;;15.32;14.20;;;5.00;99.90;;;;;;5050259;28;20044;-69
2023/01/15 07:36:14;;;;;;;15.60;14.30;;;5.00;99.90;;;;;;5071433;28;20036;-69
2023/01/15 07:38:41;;;;;;;18.05;16.58;;;5.00;99.90;;;;;;5056099;28;20141;-70
2023/01/15 07:52:08;;;;;;;;;;;5.00;99.90;;;;;;5070138;28;20306;-70
2023/01/15 07:54:35;;;;;;;14.63;13.90;;;5.00;99.90;;;;;;5066261;28;19951;-70
2023/01/15 07:57:02;;;;;;;15.93;14.73;;;5.00;99.90;;;;;;5052562;28;20430;-70
2023/01/15 07:59:29;;;;;;;15.65;14.23;;;5.00;99.90;;;;;;5073965;28;20346;-69
2023/01/15 08:01:56;;;;;;;16.60;14.90;;;4.90;99.90;;;;;;5046764;28;20035;-70
2023/01/15 08:04:23;;;;;;;15.75;14.45;;;4.90;99.90;;;;;;5069443;28;20083;-69
2023/01/15 08:06:49;;;;;;;15.68;14.45;;;4.90;99.90;;;;;;5069985;28;20259;-70
2023/01/15 08:09:16;;;;;;;18.75;17.30;;;5.00;99.90;;;;;;5073121;28;20040;-69
2023/01/15 08:17:14;;;;;;;;;;;5.00;99.90;;;;;;5075687;28;20060;-69
2023/01/15 08:19:40;;;;;;;24.85;23.35;;;5.00;99.90;;;;;;5070534;28;19930;-70
2023/01/15 08:22:09;;;;;;;25.73;23.80;;;4.90;99.90;;;;;;5072633;28;20038;-69
2023/01/15 08:24:36;;;;;;;24.48;23.15;;;4.90;99.90;;;;;;5064345;28;20059;-69
2023/01/15 08:27:03;;;;;;;24.67;23.02;;;4.90;99.90;;;;;;5092447;28;20043;-68
2023/01/15 08:29:30;;;;;;;24.95;22.92;;;4.90;99.90;;;;;;5075552;28;20048;-68
2023/01/15 08:31:57;;;;;;;23.95;22.13;;;4.90;99.90;;;;;;5069794;28;20060;-70
2023/01/15 08:34:23;;;;;;;24.88;22.92;;;4.90;99.90;;;;;;5083411;28;20048;-70
2023/01/15 08:36:56;;;;;;;17.38;16.05;;;5.00;99.90;;;;;;5074972;28;20029;-69
2023/01/15 08:39:22;;;;;;;16.40;15.25;;;5.00;99.90;;;;;;5070379;28;20215;-70
2023/01/15 08:41:49;;;;;;;21.08;16.40;;;5.00;99.90;;;;;;5046756;28;20045;-69
2023/01/15 08:44:15;;;;;;;18.02;16.48;;;4.90;99.90;;;;;;5049061;28;20051;-69
2023/01/15 08:46:42;;;;;;;26.73;24.52;;;4.90;99.90;;;;;;5067816;28;20048;-69
2023/01/15 08:49:09;;;;;;;23.52;22.25;;;4.90;99.90;;;;;;5065234;28;20501;-69
2023/01/15 08:51:36;;;;;;;24.27;21.73;;;4.90;99.90;;;;;;5065752;28;20510;-70
2023/01/15 08:54:03;;;;;;;23.23;21.90;;;4.90;99.90;;;;;;5054577;28;20490;-69
2023/01/15 08:56:30;;;;;;;22.60;20.95;;;4.90;99.90;;;;;;5073681;28;20040;-69
2023/01/15 08:58:56;;;;;;;22.00;20.52;;;5.00;99.90;;;;;;5063749;28;20067;-70
2023/01/15 09:01:23;;;;;;;24.90;22.80;;;5.00;99.90;;;;;;5055316;28;20119;-69
2023/01/15 09:03:50;;;;;;;22.17;20.98;;;5.00;99.90;;;;;;5071856;28;20113;-69
2023/01/15 09:06:16;;;;;;;22.67;21.48;;;5.00;99.90;;;;;;5048269;28;20266;-70
2023/01/15 09:08:43;;;;;;;23.50;22.05;;;5.00;99.90;;;;;;5067707;28;20036;-69
2023/01/15 09:11:11;;;;;;;23.90;22.38;;;5.00;99.90;;;;;;5051905;28;20071;-69
2023/01/15 09:13:38;;;;;;;23.88;22.40;;;5.10;99.90;;;;;;5067907;28;20147;-69
2023/01/15 09:16:06;;;;;;;23.33;22.00;;;5.10;99.90;;;;;;5067048;28;20036;-69
2023/01/15 09:18:34;;;;;;;24.55;22.65;;;5.10;99.90;;;;;;5068230;28;20036;-70
2023/01/15 09:21:01;;;;;;;25.08;23.38;;;5.10;99.90;;;;;;5070855;28;20460;-69
2023/01/15 09:23:27;;;;;;;24.02;22.73;;;5.10;99.90;;;;;;5071602;28;20036;-69
2023/01/15 09:26:01;;;;;;;25.38;23.83;;;5.10;99.90;;;;;;5055660;28;20043;-69
2023/01/15 09:28:28;;;;;;;24.58;23.27;;;5.10;99.90;;;;;;5049669;28;20357;-69
2023/01/15 09:30:56;;;;;;;25.20;23.90;;;5.20;99.90;;;;;;5082540;28;20047;-69
2023/01/15 09:33:22;;;;;;;25.45;24.15;;;5.20;99.90;;;;;;5048416;28;20102;-69
2023/01/15 09:35:50;;;;;;;25.80;24.20;;;5.20;99.90;;;;;;5032729;28;20045;-69
2023/01/15 09:38:19;;;;;;;25.67;23.55;;;5.20;99.90;;;;;;5033530;28;20045;-70
2023/01/15 09:40:56;;;;;;;25.85;24.08;;;5.20;99.90;;;;;;5031871;28;20296;-70
2023/01/15 09:43:46;;;;;;;27.92;25.60;;;5.20;99.90;;;;;;5033456;28;20040;-70
2023/01/15 09:46:24;;;;;;;25.85;24.33;;;5.20;99.90;;;;;;5032924;28;20118;-70
2023/01/15 09:49:09;;;;;;;30.10;28.42;;;5.30;99.90;;;;;;5032818;28;20103;-69
2023/01/15 09:51:41;;;;;;;24.77;23.50;;;5.30;99.90;;;;;;5031407;28;20223;-70
2023/01/15 09:54:42;;;;;;;25.83;23.92;;;5.30;99.90;;;;;;5032760;28;20041;-70
2023/01/15 09:57:12;;;;;;;25.30;23.58;;;5.40;99.90;;;;;;5034245;28;20299;-70
2023/01/15 09:59:47;;;;;;;26.05;24.25;;;5.40;99.90;;;;;;5030643;28;20071;-69
2023/01/15 10:02:29;;;;;;;25.85;23.67;;;5.40;99.90;;;;;;5035810;28;20036;-70
2023/01/15 10:05:14;;;;;;;25.33;23.65;;;5.40;99.90;;;;;;5037930;28;20276;-70
2023/01/15 10:07:49;;;;;;;24.80;23.00;;;5.50;99.90;;;;;;5041212;28;20172;-70
2023/01/15 10:10:22;;;;;;;24.95;23.25;;;5.50;99.90;;;;;;5038553;28;20055;-69
2023/01/15 10:12:56;;;;;;;24.83;23.08;;;5.50;99.90;;;;;;5035679;28;20509;-70
2023/01/15 10:15:38;;;;;;;24.73;23.17;;;5.60;99.90;;;;;;5036508;28;20116;-70
2023/01/15 10:18:08;;;;;;;29.08;27.27;;;5.60;99.90;;;;;;5038298;28;20192;-70
2023/01/15 10:20:50;;;;;;;26.25;24.88;;;5.50;99.90;;;;;;5038819;28;20076;-69
2023/01/15 10:23:39;;;;;;;27.67;26.17;;;5.60;99.90;;;;;;5036912;28;20045;-69
2023/01/15 10:26:18;;;;;;;27.42;25.83;;;5.50;99.90;;;;;;5035142;28;20057;-69
2023/01/15 10:29:04;;;;;;;28.30;26.77;;;5.50;99.90;;;;;;5035878;28;20045;-70
2023/01/15 10:31:38;;;;;;;26.23;24.52;;;5.50;99.90;;;;;;5037153;28;20040;-70
2023/01/15 10:34:38;;;;;;;27.70;26.13;;;5.40;99.90;;;;;;5054177;28;20533;-70
2023/01/15 10:37:16;;;;;;;25.42;24.08;;;5.40;99.90;;;;;;5055218;28;20056;-70
2023/01/15 10:40:03;;;;;;;27.15;25.52;;;5.40;99.90;;;;;;5040787;28;20094;-69
2023/01/15 10:42:46;;;;;;;27.98;25.98;;;5.50;99.90;;;;;;5059434;28;20194;-70
2023/01/15 10:45:32;;;;;;;21.70;20.60;;;5.50;99.90;;;;;;5055012;28;20055;-69
2023/01/15 10:48:20;;;;;;;22.25;20.98;;;5.80;99.90;;;;;;5038573;28;20418;-69
2023/01/15 10:50:48;;;;;;;22.17;20.98;;;5.90;99.90;;;;;;5058230;28;20071;-70
2023/01/15 10:53:20;;;;;;;24.25;22.90;;;6.00;99.90;;;;;;5058299;28;20044;-70
2023/01/15 10:55:53;;;;;;;21.98;20.88;;;6.10;99.90;;;;;;5056848;28;20040;-69
2023/01/15 10:58:44;;;;;;;23.67;22.38;;;6.10;99.90;;;;;;5038775;28;20217;-70
2023/01/15 11:01:15;;;;;;;25.55;24.13;;;6.00;99.90;;;;;;5059548;28;20045;-69
2023/01/15 11:03:43;;;;;;;26.40;25.10;;;5.80;99.90;;;;;;5054990;28;20129;-69
2023/01/15 11:06:17;;;;;;;25.75;24.58;;;5.70;99.90;;;;;;5055490;28;20048;-70
2023/01/15 11:08:54;;;;;;;25.10;23.85;;;5.70;99.90;;;;;;5035507;28;20151;-70
2023/01/15 11:20:31;;;;;;;22.27;21.15;;;5.60;99.90;;;;;;5057255;28;20075;-69
2023/01/15 11:23:13;;;;;;;23.10;21.55;;;5.70;99.90;;;;;;5036168;28;20044;-70
2023/01/15 11:25:49;;;;;;;25.35;23.92;;;5.90;99.90;;;;;;5031651;28;20040;-70
2023/01/15 11:28:17;;;;;;;23.63;22.33;;;6.00;99.90;;;;;;5055395;28;20044;-70
2023/01/15 11:30:54;;;;;;;26.65;24.90;;;5.80;99.90;;;;;;5053694;28;20036;-70
2023/01/15 11:33:26;;;;;;;26.07;24.63;;;5.80;99.90;;;;;;5055096;28;20127;-69
2023/01/15 11:35:59;;;;;;;23.10;21.77;;;5.70;99.90;;;;;;5051988;28;20036;-69
2023/01/15 11:38:30;;;;;;;25.67;24.17;;;5.60;99.90;;;;;;5058694;28;20051;-70
2023/01/15 11:41:00;;;;;;;24.23;22.73;;;5.70;99.90;;;;;;5039922;28;20313;-70
2023/01/15 11:52:14;;;;;;;23.77;22.05;;;5.60;99.90;;;;;;5052308;28;20122;-69
2023/01/15 11:54:45;;;;;;;25.73;24.17;;;5.70;99.90;;;;;;5051418;28;20050;-69
2023/01/15 11:57:24;;;;;;;22.83;21.42;;;5.80;99.90;;;;;;5053715;28;20044;-70
2023/01/15 11:59:51;;;;;;;21.88;20.67;;;5.80;99.90;;;;;;5034229;28;20450;-69
2023/01/15 12:02:36;;;;;;;23.05;21.75;;;5.90;99.90;;;;;;5052003;28;20048;-69
2023/01/15 12:05:04;;;;;;;;;;;5.90;99.90;;;;;;5055446;28;20052;-70
2023/01/15 12:07:36;;;;;;;24.95;23.42;;;6.10;99.90;;;;;;5049490;28;20374;-69
2023/01/15 12:10:20;;;;;;;24.60;22.58;;;6.00;99.90;;;;;;5052487;28;20056;-70
2023/01/15 12:13:09;;;;;;;24.35;22.63;;;6.00;99.90;;;;;;5048547;28;20047;-70
2023/01/15 12:16:02;;;;;;;24.67;23.10;;;6.00;99.90;;;;;;5032662;28;20726;-69
2023/01/15 12:18:45;;;;;;;25.25;23.30;;;6.00;99.90;;;;;;5034260;28;20533;-70
2023/01/15 12:21:39;;;;;;;25.13;23.43;;;5.80;99.90;;;;;;5052765;28;20047;-70
2023/01/15 12:24:23;;;;;;;23.13;21.52;;;5.70;99.90;;;;;;5050388;28;20048;-69
2023/01/15 12:27:11;;;;;;;22.45;21.05;;;5.70;99.90;;;;;;5032604;28;21207;-71
2023/01/15 12:29:49;;;;;;;23.35;21.27;;;5.70;99.90;;;;;;5049467;28;20521;-70
2023/01/15 12:32:22;;;;;;;22.77;21.38;;;5.70;99.90;;;;;;5032004;28;20322;-70
2023/01/15 12:35:00;;;;;;;21.98;20.48;;;5.70;99.90;;;;;;5051031;28;20253;-70
2023/01/15 12:37:35;;;;;;;22.23;20.98;;;5.70;99.90;;;;;;5018728;28;20423;-70
2023/01/15 12:40:18;;;;;;;24.17;22.52;;;5.70;99.90;;;;;;5055263;28;20086;-70
2023/01/15 12:45:40;;;;;;;23.58;22.15;;;5.70;99.90;;;;;;5045529;28;20043;-70
2023/01/15 12:48:21;;;;;;;23.75;22.40;;;5.70;99.90;;;;;;5036810;28;20068;-70
2023/01/15 12:51:00;;;;;;;23.83;22.45;;;5.70;99.90;;;;;;5049880;28;20060;-69
2023/01/15 12:53:49;;;;;;;23.25;21.30;;;5.80;99.90;;;;;;5053453;28;20758;-70
2023/01/15 12:56:22;;;;;;;22.42;20.92;;;5.80;99.90;;;;;;5052250;28;20470;-70
2023/01/15 12:59:18;;;;;;;22.67;21.13;;;5.90;99.90;;;;;;5035139;28;20972;-69
2023/01/15 13:02:11;;;;;;;25.25;23.40;;;6.00;99.90;;;;;;5049954;28;20045;-69
2023/01/15 13:05:03;;;;;;;24.13;22.48;;;6.10;99.90;;;;;;5053340;28;20129;-70
2023/01/15 13:07:43;;;;;;;25.58;24.08;;;6.00;99.90;;;;;;5013289;28;20049;-69
2023/01/15 13:10:19;;;;;;;23.92;22.33;;;6.00;99.90;;;;;;5049654;28;20217;-69
2023/01/15 13:12:46;;;;;;;23.83;22.10;;;6.00;99.90;;;;;;5050575;28;20410;-68
2023/01/15 13:15:19;;;;;;;24.48;22.77;;;6.00;99.90;;;;;;5052386;28;20029;-69
2023/01/15 13:18:15;;;;;;;23.55;22.25;;;6.00;99.90;;;;;;5048706;28;20043;-69
2023/01/15 13:20:50;;;;;;;23.10;21.42;;;5.90;99.90;;;;;;5048242;28;20059;-69
2023/01/15 13:23:34;;;;;;;24.08;22.20;;;5.90;99.90;;;;;;5052610;28;20075;-69
2023/01/15 13:26:00;;;;;;;23.10;21.38;;;5.90;99.90;;;;;;5045184;28;20518;-69
2023/01/15 13:29:03;;;;;;;22.63;20.92;;;5.90;99.90;;;;;;5035707;28;20129;-69
2023/01/15 13:32:11;;;;;;;22.98;21.73;;;5.90;99.90;;;;;;4952873;28;20043;-68
2023/01/15 13:34:53;;;;;;;24.88;22.67;;;5.90;99.90;;;;;;4990901;28;20417;-69
2023/01/15 13:37:26;;;;;;;25.50;23.52;;;5.90;99.90;;;;;;5051150;28;20044;-68
2023/01/15 13:39:58;;;;;;;23.23;21.25;;;5.90;99.90;;;;;;5054197;28;20041;-71
2023/01/15 13:42:33;;;;;;;23.70;21.85;;;5.90;99.90;;;;;;5056182;28;20037;-71
2023/01/15 13:45:18;;;;;;;23.88;21.70;;;6.00;99.90;;;;;;5056192;28;20062;-68
2023/01/15 13:47:48;;;;;;;23.10;20.92;;;5.90;99.90;;;;;;5052904;28;20051;-70
2023/01/15 13:50:33;;;;;;;22.40;20.80;;;5.90;99.90;;;;;;5054835;28;20043;-68
2023/01/15 13:53:22;;;;;;;23.35;21.70;;;5.90;99.90;;;;;;5057441;28;20079;-70
2023/01/15 13:55:58;;;;;;;21.15;20.05;;;5.90;99.90;;;;;;5030223;28;20040;-70
2023/01/15 13:58:30;;;;;;;24.00;22.50;;;5.90;99.90;;;;;;5039393;28;20044;-70
2023/01/15 14:01:21;;;;;;;24.90;22.85;;;5.90;99.90;;;;;;5037364;28;20045;-70
2023/01/15 14:04:16;;;;;;;23.83;22.25;;;5.90;99.90;;;;;;5035742;28;20143;-70
2023/01/15 14:06:43;;;;;;;23.97;22.30;;;5.90;99.90;;;;;;5036258;28;20032;-70